TimeCST,TemperatureF,Dew PointF,Humidity,Sea Level PressureIn,VisibilityMPH,Wind Direction,Wind SpeedMPH,Gust SpeedMPH,PrecipitationIn,Events,Conditions,WindDirDegrees,DateUTC
12:51 AM,71.1,66.9,87,29.81,10.0,SSE,9.2,-,N/A,,Partly Cloudy,150,2012-12-08 06:51:00
1:51 AM,69.1,64.9,87,29.81,10.0,SE,8.1,-,N/A,,Partly Cloudy,140,2012-12-08 07:51:00
2:51 AM,69.1,66.0,90,29.81,10.0,SE,6.9,-,N/A,,Partly Cloudy,130,2012-12-08 08:51:00
3:41 AM,69.8,66.2,88,29.82,10.0,SE,5.8,-,N/A,,Mostly Cloudy,130,2012-12-08 09:41:00
3:51 AM,70.0,66.9,90,29.81,10.0,ESE,4.6,-,N/A,,Mostly Cloudy,120,2012-12-08 09:51:00
4:51 AM,72.0,66.9,84,29.82,10.0,SE,6.9,-,N/A,,Overcast,140,2012-12-08 10:51:00
4:59 AM,71.6,66.2,83,29.82,10.0,SSE,6.9,-,N/A,,Overcast,150,2012-12-08 10:59:00
5:51 AM,73.0,66.9,81,29.83,10.0,SE,8.1,-,N/A,,Overcast,140,2012-12-08 11:51:00
6:51 AM,72.0,66.9,84,29.85,10.0,SSE,8.1,-,N/A,,Mostly Cloudy,150,2012-12-08 12:51:00
7:51 AM,72.0,66.9,84,29.86,10.0,SE,9.2,-,N/A,,Partly Cloudy,140,2012-12-08 13:51:00
8:51 AM,75.9,69.1,79,29.88,10.0,SSE,12.7,-,N/A,,Scattered Clouds,150,2012-12-08 14:51:00
9:51 AM,80.1,69.1,69,29.89,10.0,SSE,18.4,-,N/A,,Scattered Clouds,160,2012-12-08 15:51:00
10:31 AM,80.6,68.0,65,29.89,10.0,South,13.8,-,N/A,,Mostly Cloudy,170,2012-12-08 16:31:00
10:43 AM,82.4,69.8,66,29.88,10.0,South,19.6,-,N/A,,Mostly Cloudy,170,2012-12-08 16:43:00
10:51 AM,82.0,69.1,65,29.88,10.0,SSE,20.7,26.5,N/A,,Mostly Cloudy,160,2012-12-08 16:51:00
11:30 AM,82.4,68.0,62,29.88,10.0,South,20.7,26.5,N/A,,Mostly Cloudy,170,2012-12-08 17:30:00
11:51 AM,82.9,68.0,60,29.86,10.0,SSE,18.4,-,N/A,,Mostly Cloudy,160,2012-12-08 17:51:00
12:51 PM,84.9,68.0,57,29.83,10.0,SSE,20.7,26.5,N/A,,Scattered Clouds,150,2012-12-08 18:51:00
1:51 PM,84.9,68.0,57,29.81,10.0,SE,23.0,-,N/A,,Scattered Clouds,140,2012-12-08 19:51:00
2:51 PM,84.0,66.9,56,29.80,10.0,SSE,21.9,27.6,N/A,,Scattered Clouds,150,2012-12-08 20:51:00
3:51 PM,82.9,66.9,58,29.80,10.0,SSE,23.0,-,N/A,,Partly Cloudy,150,2012-12-08 21:51:00
4:51 PM,79.0,66.9,66,29.80,10.0,SSE,24.2,28.8,N/A,,Partly Cloudy,150,2012-12-08 22:51:00
5:51 PM,77.0,68.0,74,29.82,10.0,SSE,20.7,-,N/A,,Clear,150,2012-12-08 23:51:00
6:51 PM,75.9,68.0,76,29.83,10.0,SSE,16.1,-,N/A,,Clear,150,2012-12-09 00:51:00
7:51 PM,75.0,66.9,76,29.84,10.0,SSE,17.3,-,N/A,,Clear,160,2012-12-09 01:51:00
8:51 PM,73.9,66.9,79,29.85,10.0,SSE,12.7,-,N/A,,Clear,160,2012-12-09 02:51:00
9:51 PM,73.0,66.9,81,29.86,10.0,South,12.7,-,N/A,,Clear,170,2012-12-09 03:51:00
10:51 PM,73.0,66.9,81,29.86,10.0,SSE,10.4,-,N/A,,Clear,160,2012-12-09 04:51:00
11:51 PM,72.0,66.9,84,29.86,10.0,SSE,9.2,-,N/A,,Clear,150,2012-12-09 05:51:00